Jacksonville, Florida
Current Conditions -  °F | °C
As of 11:56 AM on Sunday 21 Dec 2014 (Local Time) from KJAX Reporting Station
Overcast Overcast  
Wind Chill: 14°   Ceiling: 500
Heat Index: 14°   Visibility: 9mi
Dew Point: 14°   Wind: 9mph
Humidity: 100%   Direction: 50°NE
Pressure: 30.12"   Gusts: NA
Location:  30.32°N, 81.66°W
Report Text: KJAX 211656Z 05008KT 9SM OVC005 14/14 A3012 RMK AO2 RAE22 SLP199 P0001 T01390139
Loading
Personal Weather Stations






























Interactive Weather Map New forecast layout! Learn more

10-Day Weather Forecast

Advertisements
Track Severe Weather on mobile